createdAt,value
2023-02-05T00:01:32.562Z,74.82
2023-02-05T00:03:59.814Z,68.90
2023-02-05T00:06:27.048Z,65.22
2023-02-05T00:08:54.089Z,66.28
2023-02-05T00:11:20.974Z,65.63
2023-02-05T00:13:47.862Z,68.97
2023-02-05T00:16:17.649Z,65.60
2023-02-05T00:18:44.566Z,61.15
2023-02-05T00:21:12.008Z,66.03
2023-02-05T00:23:39.533Z,57.92
2023-02-05T00:26:07.543Z,66.28
2023-02-05T00:28:35.652Z,64.63
2023-02-05T00:31:08.523Z,60.00
2023-02-05T00:33:35.608Z,78.78
2023-02-05T00:36:02.737Z,66.20
2023-02-05T00:38:29.575Z,68.00
2023-02-05T00:40:56.444Z,65.45
2023-02-05T00:43:23.384Z,65.93
2023-02-05T00:45:50.320Z,69.05
2023-02-05T00:48:17.199Z,59.65
2023-02-05T00:50:44.012Z,62.78
2023-02-05T00:53:10.883Z,69.50
2023-02-05T00:55:37.735Z,71.05
2023-02-05T00:58:04.621Z,73.50
2023-02-05T01:00:32.759Z,67.63
2023-02-05T01:03:00.995Z,68.93
2023-02-05T01:05:28.130Z,70.75
2023-02-05T01:07:55.003Z,74.25
2023-02-05T01:10:21.913Z,84.70
2023-02-05T01:12:51.970Z,61.92
2023-02-05T01:15:20.228Z,67.70
2023-02-05T01:17:47.535Z,66.72
2023-02-05T01:20:15.604Z,73.45
2023-02-05T01:22:43.058Z,74.55
2023-02-05T01:25:10.565Z,67.43
2023-02-05T01:27:37.943Z,73.18
2023-02-05T01:30:06.604Z,74.47
2023-02-05T01:32:35.658Z,73.72
2023-02-05T01:35:02.581Z,80.90
2023-02-05T01:37:29.456Z,61.13
2023-02-05T01:39:57.193Z,73.20
2023-02-05T01:42:27.174Z,73.97
2023-02-05T01:45:22.147Z,75.00
2023-02-05T01:47:54.436Z,69.82
2023-02-05T01:50:29.010Z,72.40
2023-02-05T01:52:59.899Z,75.60
2023-02-05T01:55:29.155Z,74.82
2023-02-05T01:57:58.439Z,79.75
2023-02-05T02:00:26.541Z,68.88
2023-02-05T02:02:53.846Z,78.88
2023-02-05T02:05:20.795Z,76.13
2023-02-05T02:07:47.675Z,78.47
2023-02-05T02:10:17.683Z,76.13
2023-02-05T02:12:47.520Z,72.85
2023-02-05T02:15:20.962Z,69.55
2023-02-05T02:17:51.892Z,63.28
2023-02-05T02:20:27.283Z,72.55
2023-02-05T02:23:20.215Z,66.80
2023-02-05T02:26:07.469Z,72.55
2023-02-05T02:28:54.732Z,60.47
2023-02-05T02:31:21.627Z,59.60
2023-02-05T02:33:59.304Z,57.00
2023-02-05T02:36:31.897Z,57.33
2023-02-05T02:39:13.936Z,62.15
2023-02-05T02:41:51.776Z,56.53
2023-02-05T02:44:40.997Z,47.97
2023-02-05T02:47:22.428Z,47.92
2023-02-05T02:49:57.449Z,51.65
2023-02-05T02:52:27.056Z,49.58
2023-02-05T02:54:58.050Z,47.50
2023-02-05T02:57:28.181Z,44.17
2023-02-05T03:00:00.798Z,46.17
2023-02-05T03:02:32.194Z,43.83
2023-02-05T03:05:03.934Z,53.55
2023-02-05T03:07:39.336Z,44.47
2023-02-05T03:10:30.860Z,49.67
2023-02-05T03:12:57.990Z,41.67
2023-02-05T03:15:26.015Z,48.75
2023-02-05T03:17:55.098Z,44.05
2023-02-05T03:20:24.862Z,43.40
2023-02-05T03:22:51.771Z,40.47
2023-02-05T03:25:22.074Z,40.80
2023-02-05T03:27:53.971Z,47.50
2023-02-05T03:30:24.690Z,31.45
2023-02-05T03:33:17.700Z,38.33
2023-02-05T03:36:09.247Z,30.55
2023-02-05T03:39:01.440Z,33.30
2023-02-05T03:42:01.814Z,26.02
2023-02-05T03:44:49.151Z,35.67
2023-02-05T03:47:48.320Z,26.80
2023-02-05T03:50:24.314Z,32.20
2023-02-05T03:52:59.462Z,31.33
2023-02-05T03:55:33.319Z,29.27
2023-02-05T03:58:25.149Z,27.90
2023-02-05T04:00:52.246Z,31.05
2023-02-05T04:03:20.093Z,27.92
2023-02-05T04:05:47.165Z,24.58
2023-02-05T04:08:14.170Z,30.58
2023-02-05T04:10:45.433Z,31.57
2023-02-05T04:13:13.965Z,35.22
2023-02-05T04:15:42.247Z,26.58
2023-02-05T04:18:11.077Z,20.73
2023-02-05T04:20:38.166Z,26.60
2023-02-05T04:23:06.843Z,23.20
2023-02-05T04:25:36.553Z,23.20
2023-02-05T04:28:05.618Z,24.85
2023-02-05T04:30:33.784Z,20.17
2023-02-05T04:33:01.375Z,19.83
2023-02-05T04:35:28.423Z,26.00
2023-02-05T04:37:55.228Z,23.33
2023-02-05T04:40:22.111Z,20.45
2023-02-05T04:42:48.982Z,20.83
2023-02-05T04:45:15.861Z,16.52
2023-02-05T04:47:42.748Z,17.55
2023-02-05T04:50:09.941Z,20.20
2023-02-05T04:52:36.887Z,17.80
2023-02-05T04:55:03.997Z,20.42
2023-02-05T04:57:31.374Z,18.90
2023-02-05T04:59:58.166Z,27.23
2023-02-05T05:02:25.375Z,23.33
2023-02-05T05:04:52.222Z,22.83
2023-02-05T05:07:19.030Z,18.55
2023-02-05T05:09:45.850Z,23.25
2023-02-05T05:12:12.676Z,17.48
2023-02-05T05:14:40.182Z,17.88
2023-02-05T05:17:07.116Z,20.85
2023-02-05T05:19:33.967Z,14.38
2023-02-05T05:22:00.867Z,8.30
2023-02-05T05:24:27.844Z,6.63
2023-02-05T05:26:54.687Z,6.28
2023-02-05T05:29:21.587Z,2.95
2023-02-05T05:31:48.494Z,6.47
2023-02-05T05:34:15.624Z,5.53
2023-02-05T05:36:43.698Z,11.38
2023-02-05T05:39:29.597Z,7.90
2023-02-05T05:42:14.875Z,5.40
2023-02-05T05:44:42.947Z,2.30
2023-02-05T05:47:09.813Z,5.50
2023-02-05T05:49:36.755Z,8.35
2023-02-05T05:52:03.711Z,6.05
2023-02-05T05:54:30.642Z,9.65
2023-02-05T05:56:57.519Z,5.93
2023-02-05T05:59:24.404Z,12.43
2023-02-05T06:01:51.280Z,8.40
2023-02-05T06:04:18.290Z,11.63
2023-02-05T06:06:45.206Z,14.15
2023-02-05T06:09:12.193Z,16.52
2023-02-05T06:11:39.161Z,14.02
2023-02-05T06:14:06.145Z,16.30
2023-02-05T06:16:33.045Z,9.05
2023-02-05T06:19:00.117Z,9.45
2023-02-05T06:21:27.010Z,8.52
2023-02-05T06:23:53.883Z,13.30
2023-02-05T06:26:20.727Z,9.52
2023-02-05T06:28:47.603Z,5.35
2023-02-05T06:31:14.610Z,9.70
2023-02-05T06:33:41.509Z,6.97
2023-02-05T06:36:08.552Z,6.68
2023-02-05T06:38:35.397Z,7.00
2023-02-05T06:41:02.272Z,16.20
2023-02-05T06:43:29.184Z,16.02
2023-02-05T06:45:56.012Z,8.45
2023-02-05T06:48:22.938Z,7.78
2023-02-05T06:50:49.810Z,13.85
2023-02-05T06:53:16.693Z,10.10
2023-02-05T06:55:43.568Z,10.90
2023-02-05T06:58:10.617Z,12.32
2023-02-05T07:00:37.652Z,9.55
2023-02-05T07:03:04.943Z,11.18
2023-02-05T07:05:34.669Z,4.40
2023-02-05T07:08:03.963Z,8.50
2023-02-05T07:10:30.927Z,10.20
2023-02-05T07:12:57.814Z,11.23
2023-02-05T07:15:24.678Z,8.15
2023-02-05T07:17:51.566Z,3.75
2023-02-05T07:20:18.816Z,7.53
2023-02-05T07:22:47.178Z,8.88
2023-02-05T07:25:14.150Z,9.88
2023-02-05T07:27:41.094Z,7.03
2023-02-05T07:30:08.662Z,9.95
2023-02-05T07:32:35.515Z,14.75
2023-02-05T07:35:02.390Z,10.57
2023-02-05T07:37:29.253Z,16.70
2023-02-05T07:39:56.117Z,17.90
2023-02-05T07:42:23.039Z,23.02
2023-02-05T07:44:56.137Z,12.85
2023-02-05T07:47:22.991Z,19.92
2023-02-05T07:49:50.046Z,14.20
2023-02-05T07:52:16.950Z,17.73
2023-02-05T07:54:43.757Z,21.35
2023-02-05T07:57:10.640Z,21.30
2023-02-05T07:59:37.462Z,12.88
2023-02-05T08:02:04.323Z,17.15
2023-02-05T08:04:31.386Z,21.80
2023-02-05T08:06:58.292Z,13.25
2023-02-05T08:09:25.111Z,25.38
2023-02-05T08:11:51.997Z,17.02
2023-02-05T08:14:18.859Z,19.33
2023-02-05T08:16:45.742Z,23.00
2023-02-05T08:19:17.814Z,29.92
2023-02-05T08:21:44.880Z,30.02
2023-02-05T08:24:11.841Z,21.05
2023-02-05T08:26:39.790Z,18.58
2023-02-05T08:29:08.372Z,19.60
2023-02-05T08:31:35.954Z,14.85
2023-02-05T08:34:03.936Z,31.95
2023-02-05T08:36:31.501Z,26.08
2023-02-05T08:38:58.389Z,26.20
2023-02-05T08:41:25.283Z,25.70
2023-02-05T08:43:52.216Z,21.52
2023-02-05T08:46:22.104Z,20.95
2023-02-05T08:48:49.275Z,41.88
2023-02-05T08:51:16.851Z,19.33
2023-02-05T08:53:43.855Z,30.85
2023-02-05T08:56:12.451Z,29.33
2023-02-05T08:58:40.540Z,31.30
2023-02-05T09:01:13.367Z,35.10
2023-02-05T09:03:40.619Z,42.95
2023-02-05T09:06:13.680Z,35.72
2023-02-05T09:08:41.001Z,27.83
2023-02-05T09:11:08.496Z,35.38
2023-02-05T09:13:35.743Z,39.50
2023-02-05T09:16:02.716Z,33.80
2023-02-05T09:18:29.581Z,35.00
2023-02-05T09:20:56.922Z,32.55
2023-02-05T09:23:23.845Z,39.17
2023-02-05T09:25:50.767Z,32.70
2023-02-05T09:28:17.724Z,45.75
2023-02-05T09:30:46.511Z,28.27
2023-02-05T09:33:14.414Z,28.85
2023-02-05T09:35:42.150Z,40.28
2023-02-05T09:38:09.386Z,33.67
2023-02-05T09:40:48.198Z,27.17
2023-02-05T09:43:52.195Z,34.08
2023-02-05T09:46:36.797Z,29.75
2023-02-05T09:49:29.926Z,32.35
2023-02-05T09:52:02.647Z,25.83
2023-02-05T09:54:33.311Z,39.15
2023-02-05T09:57:08.054Z,42.88
2023-02-05T09:59:35.189Z,32.58
2023-02-05T10:02:18.161Z,20.52
2023-02-05T10:04:45.029Z,36.83
2023-02-05T10:07:24.795Z,35.95
2023-02-05T10:10:07.227Z,28.63
2023-02-05T10:15:19.769Z,21.88
2023-02-05T10:18:04.825Z,18.48
2023-02-05T10:20:38.921Z,14.85
2023-02-05T10:23:17.810Z,28.17
2023-02-05T10:26:02.826Z,22.90
2023-02-05T10:28:32.669Z,33.45
2023-02-05T10:31:05.770Z,26.23
2023-02-05T10:33:49.959Z,26.55
2023-02-05T10:36:21.965Z,44.47
2023-02-05T10:38:51.850Z,35.10
2023-02-05T10:41:44.738Z,36.97
2023-02-05T10:44:18.187Z,24.38
2023-02-05T10:46:51.708Z,34.20
2023-02-05T10:49:36.777Z,40.17
2023-02-05T10:52:03.986Z,41.42
2023-02-05T10:54:33.821Z,37.88
2023-02-05T10:57:01.241Z,40.03
2023-02-05T10:59:31.313Z,28.88
2023-02-05T11:02:03.112Z,38.60
2023-02-05T11:04:46.986Z,42.15
2023-02-05T11:07:39.317Z,27.52
2023-02-05T11:10:21.954Z,36.80
2023-02-05T11:13:21.198Z,30.48
2023-02-05T11:16:17.584Z,41.58
2023-02-05T11:18:47.332Z,25.20
2023-02-05T11:21:14.311Z,29.85
2023-02-05T11:23:57.989Z,29.92
2023-02-05T11:26:27.570Z,32.53
2023-02-05T11:28:54.630Z,34.72
2023-02-05T11:31:32.038Z,37.00
2023-02-05T11:34:20.500Z,29.83
2023-02-05T11:36:50.631Z,27.63
2023-02-05T11:39:29.377Z,29.35
2023-02-05T11:41:57.894Z,27.98
2023-02-05T11:44:30.260Z,27.02
2023-02-05T11:47:00.629Z,38.70
2023-02-05T11:49:39.339Z,30.38
2023-02-05T11:52:14.509Z,30.05
2023-02-05T11:54:46.916Z,33.35
2023-02-05T11:57:19.855Z,27.95
2023-02-05T11:59:57.397Z,33.17
2023-02-05T12:02:30.184Z,37.25
2023-02-05T12:05:06.326Z,35.13
2023-02-05T12:07:41.008Z,26.58
2023-02-05T12:10:33.749Z,25.70
2023-02-05T12:13:24.445Z,32.97
2023-02-05T12:16:03.608Z,36.78
2023-02-05T12:19:00.733Z,36.33
2023-02-05T12:21:37.574Z,28.02
2023-02-05T12:24:33.534Z,35.10
2023-02-05T12:27:20.019Z,30.88
2023-02-05T12:30:10.584Z,35.35
2023-02-05T12:33:05.160Z,51.33
2023-02-05T12:36:11.230Z,23.80
2023-02-05T12:39:07.890Z,30.60
2023-02-05T12:41:51.497Z,29.75
2023-02-05T12:44:33.430Z,37.38
2023-02-05T12:47:15.967Z,27.83
2023-02-05T12:50:19.789Z,31.02
2023-02-05T12:53:15.216Z,34.05
2023-02-05T12:56:10.668Z,32.63
2023-02-05T12:58:47.146Z,39.97
2023-02-05T13:01:22.580Z,36.67
2023-02-05T13:03:54.952Z,37.38
2023-02-05T13:09:18.677Z,39.33
2023-02-05T13:12:06.500Z,38.22
2023-02-05T13:14:57.817Z,28.48
2023-02-05T13:17:28.162Z,34.05
2023-02-05T13:20:00.438Z,24.73
2023-02-05T13:25:49.878Z,27.90
2023-02-05T13:28:40.012Z,30.02
2023-02-05T13:31:38.567Z,20.73
2023-02-05T13:34:08.115Z,30.95
2023-02-05T13:36:37.808Z,22.30
2023-02-05T13:39:49.242Z,32.75
2023-02-05T13:42:31.243Z,34.72
2023-02-05T13:45:35.882Z,32.55
2023-02-05T13:48:12.531Z,31.55
2023-02-05T13:50:39.509Z,33.55
2023-02-05T13:53:39.190Z,37.53
2023-02-05T13:56:24.567Z,33.38
2023-02-05T13:59:02.313Z,23.20
2023-02-05T14:01:34.649Z,29.90
2023-02-05T14:04:22.187Z,23.40
2023-02-05T14:06:58.811Z,28.77
2023-02-05T14:09:40.340Z,25.27
2023-02-05T14:12:13.314Z,26.23
2023-02-05T14:14:41.936Z,34.38
2023-02-05T14:17:27.696Z,30.25
2023-02-05T14:19:57.073Z,27.48
2023-02-05T14:22:44.334Z,34.42
2023-02-05T14:25:39.117Z,24.45
2023-02-05T14:28:09.109Z,33.10
2023-02-05T14:30:58.713Z,29.48
2023-02-05T14:33:25.679Z,32.95
2023-02-05T14:36:15.957Z,38.22
2023-02-05T14:38:50.916Z,24.25
2023-02-05T14:41:45.870Z,26.45
2023-02-05T14:44:12.705Z,22.70
2023-02-05T14:46:55.271Z,30.58
2023-02-05T14:49:25.886Z,31.33
2023-02-05T14:51:59.406Z,31.02
2023-02-05T14:54:48.497Z,35.03
2023-02-05T14:57:15.312Z,35.38
2023-02-05T14:59:51.132Z,37.47
2023-02-05T15:02:55.557Z,34.75
2023-02-05T15:05:44.449Z,39.58
2023-02-05T15:08:17.237Z,33.95
2023-02-05T15:10:58.260Z,37.95
2023-02-05T15:13:26.228Z,33.00
2023-02-05T15:16:11.201Z,33.35
2023-02-05T15:18:59.074Z,40.33
2023-02-05T15:21:28.009Z,35.17
2023-02-05T15:24:22.052Z,34.17
2023-02-05T15:27:18.767Z,37.78
2023-02-05T15:29:48.656Z,29.77
2023-02-05T15:32:37.215Z,30.83
2023-02-05T15:35:17.846Z,34.38
2023-02-05T15:37:56.352Z,42.08
2023-02-05T15:40:34.236Z,25.23
2023-02-05T15:43:12.004Z,35.47
2023-02-05T15:45:44.738Z,26.17
2023-02-05T15:48:11.922Z,42.33
2023-02-05T15:51:12.681Z,49.78
2023-02-05T15:53:49.641Z,36.50
2023-02-05T15:56:36.813Z,48.90
2023-02-05T15:59:16.517Z,39.45
2023-02-05T16:01:49.514Z,35.75
2023-02-05T16:04:22.575Z,35.95
2023-02-05T16:06:49.475Z,38.33
2023-02-05T16:09:25.003Z,36.28
2023-02-05T16:11:52.001Z,45.47
2023-02-05T16:14:20.029Z,38.15
2023-02-05T16:17:14.510Z,37.35
2023-02-05T16:19:51.950Z,33.25
2023-02-05T16:22:42.704Z,40.33
2023-02-05T16:25:41.849Z,37.20
2023-02-05T16:28:29.922Z,39.05
2023-02-05T16:30:58.457Z,46.22
2023-02-05T16:33:33.353Z,33.35
2023-02-05T16:36:06.574Z,46.30
2023-02-05T16:38:36.014Z,39.58
2023-02-05T16:41:25.907Z,44.53
2023-02-05T16:43:54.687Z,40.63
2023-02-05T16:46:25.720Z,41.42
2023-02-05T16:48:56.830Z,43.30
2023-02-05T16:51:35.366Z,41.13
2023-02-05T16:54:26.793Z,50.65
2023-02-05T16:56:56.459Z,47.83
2023-02-05T16:59:27.919Z,45.60
2023-02-05T17:01:55.252Z,46.60
2023-02-05T17:04:40.594Z,37.53
2023-02-05T17:07:18.803Z,51.47
2023-02-05T17:09:45.817Z,38.22
2023-02-05T17:12:21.990Z,55.30
2023-02-05T17:15:02.039Z,33.55
2023-02-05T17:17:31.775Z,49.75
2023-02-05T17:20:23.749Z,49.55
2023-02-05T17:23:05.648Z,39.88
2023-02-05T17:25:41.698Z,39.70
2023-02-05T17:28:15.509Z,40.58
2023-02-05T17:30:44.781Z,41.67
2023-02-05T17:33:27.290Z,36.63
2023-02-05T17:35:54.956Z,41.10
2023-02-05T17:38:23.544Z,64.70
2023-02-05T17:41:10.945Z,44.35
2023-02-05T17:43:39.137Z,50.80
2023-02-05T17:46:14.546Z,53.70
2023-02-05T17:48:41.605Z,47.67
2023-02-05T17:51:21.556Z,33.45
2023-02-05T17:53:49.374Z,42.45
2023-02-05T17:56:19.185Z,52.95
2023-02-05T17:58:46.112Z,41.88
2023-02-05T18:01:13.177Z,45.47
2023-02-05T18:03:40.207Z,49.92
2023-02-05T18:06:07.288Z,41.13
2023-02-05T18:08:37.084Z,37.42
2023-02-05T18:11:04.651Z,39.42
2023-02-05T18:13:31.497Z,47.67
2023-02-05T18:16:03.266Z,34.08
2023-02-05T18:18:33.046Z,38.60
2023-02-05T18:20:59.894Z,49.20
2023-02-05T18:23:29.444Z,40.83
2023-02-05T18:25:57.673Z,45.65
2023-02-05T18:28:25.046Z,41.08
2023-02-05T18:31:07.166Z,49.10
2023-02-05T18:33:34.291Z,46.70
2023-02-05T18:36:09.858Z,42.88
2023-02-05T18:38:37.110Z,40.97
2023-02-05T18:41:09.785Z,54.70
2023-02-05T18:43:37.347Z,44.40
2023-02-05T18:46:18.197Z,49.83
2023-02-05T18:48:45.694Z,37.65
2023-02-05T18:51:14.864Z,56.17
2023-02-05T18:53:46.071Z,50.00
2023-02-05T18:56:14.883Z,51.47
2023-02-05T18:58:42.809Z,54.10
2023-02-05T19:01:15.313Z,45.45
2023-02-05T19:03:43.395Z,43.45
2023-02-05T19:06:12.637Z,41.28
2023-02-05T19:08:40.085Z,36.08
2023-02-05T19:11:15.100Z,43.85
2023-02-05T19:13:42.420Z,41.45
2023-02-05T19:16:15.029Z,55.15
2023-02-05T19:18:45.989Z,53.28
2023-02-05T19:21:15.252Z,47.20
2023-02-05T19:23:44.176Z,47.00
2023-02-05T19:26:13.974Z,57.42
2023-02-05T19:28:42.000Z,56.55
2023-02-05T19:31:11.516Z,50.65
2023-02-05T19:33:39.423Z,47.30
2023-02-05T19:36:08.564Z,45.22
2023-02-05T19:38:37.126Z,52.22
2023-02-05T19:41:16.260Z,48.15
2023-02-05T19:43:50.356Z,49.60
2023-02-05T19:46:23.349Z,53.90
2023-02-05T19:48:50.630Z,47.10
2023-02-05T19:51:18.230Z,46.70
2023-02-05T19:53:46.530Z,41.85
2023-02-05T19:56:17.128Z,48.75
2023-02-05T19:58:46.509Z,46.83
2023-02-05T20:01:16.479Z,54.63
2023-02-05T20:03:47.097Z,51.88
2023-02-05T20:06:16.616Z,44.38
2023-02-05T20:08:44.724Z,35.63
2023-02-05T20:11:12.778Z,47.80
2023-02-05T20:13:40.899Z,60.53
2023-02-05T20:16:15.042Z,64.55
2023-02-05T20:18:42.565Z,37.20
2023-02-05T20:21:12.338Z,48.95
2023-02-05T20:23:39.260Z,50.05
2023-02-05T20:26:07.850Z,50.15
2023-02-05T20:28:57.366Z,44.75
2023-02-05T20:31:34.417Z,43.92
2023-02-05T20:34:18.401Z,44.85
2023-02-05T20:36:48.326Z,52.58
2023-02-05T20:39:17.229Z,53.50
2023-02-05T20:41:46.268Z,54.10
2023-02-05T20:44:13.877Z,50.65
2023-02-05T20:46:40.840Z,48.17
2023-02-05T20:49:09.012Z,57.13
2023-02-05T20:51:36.706Z,52.40
2023-02-05T20:54:04.597Z,56.40
2023-02-05T20:56:31.586Z,54.22
2023-02-05T20:58:59.822Z,44.63
2023-02-05T21:01:28.823Z,62.42
2023-02-05T21:04:01.400Z,45.85
2023-02-05T21:06:31.171Z,60.88
2023-02-05T21:08:58.150Z,56.97
2023-02-05T21:11:26.597Z,51.33
2023-02-05T21:13:53.691Z,52.75
2023-02-05T21:16:22.694Z,39.15
2023-02-05T21:18:52.436Z,36.45
2023-02-05T21:21:31.812Z,48.85
2023-02-05T21:24:01.737Z,53.72
2023-02-05T21:26:37.163Z,51.45
2023-02-05T21:29:18.839Z,38.25
2023-02-05T21:31:52.968Z,37.33
2023-02-05T21:34:25.498Z,45.55
2023-02-05T21:39:22.592Z,40.30
2023-02-05T21:41:53.364Z,51.83
2023-02-05T21:44:20.316Z,60.22
2023-02-05T21:46:47.226Z,45.25
2023-02-05T21:49:14.079Z,46.10
2023-02-05T21:51:42.377Z,43.97
2023-02-05T21:54:10.753Z,43.58
2023-02-05T21:56:40.642Z,52.50
2023-02-05T21:59:07.924Z,47.85
2023-02-05T22:01:36.239Z,42.85
2023-02-05T22:04:07.363Z,40.03
2023-02-05T22:06:35.112Z,65.88
2023-02-05T22:09:03.916Z,59.40
2023-02-05T22:11:31.236Z,42.45
2023-02-05T22:13:58.289Z,48.92
2023-02-05T22:16:27.699Z,51.65
2023-02-05T22:18:55.086Z,39.72
2023-02-05T22:21:25.048Z,55.47
2023-02-05T22:23:54.109Z,34.58
2023-02-05T22:26:23.845Z,41.35
2023-02-05T22:28:51.394Z,83.38
2023-02-05T22:31:20.335Z,55.42
2023-02-05T22:33:49.726Z,60.15
2023-02-05T22:36:20.111Z,58.75
2023-02-05T22:38:47.983Z,67.07
2023-02-05T22:41:20.349Z,74.55
2023-02-05T22:43:47.530Z,43.78
2023-02-05T22:46:21.130Z,52.35
2023-02-05T22:48:49.766Z,54.33
2023-02-05T22:51:25.466Z,59.65
2023-02-05T22:53:53.770Z,56.25
2023-02-05T22:56:21.597Z,60.83
2023-02-05T22:58:49.173Z,52.55
2023-02-05T23:01:22.044Z,37.40
2023-02-05T23:03:50.797Z,54.20
2023-02-05T23:06:38.774Z,60.38
2023-02-05T23:09:11.556Z,59.20
2023-02-05T23:11:38.750Z,50.15
2023-02-05T23:14:06.772Z,48.15
2023-02-05T23:16:40.785Z,79.25
2023-02-05T23:19:11.387Z,55.35
2023-02-05T23:21:39.550Z,37.08
2023-02-05T23:24:07.843Z,56.08
2023-02-05T23:26:39.703Z,34.60
2023-02-05T23:29:07.769Z,51.55
2023-02-05T23:31:35.145Z,47.13
2023-02-05T23:34:02.388Z,51.00
2023-02-05T23:36:29.443Z,51.63
2023-02-05T23:38:56.265Z,46.08
2023-02-05T23:41:39.863Z,47.78
2023-02-05T23:44:18.728Z,53.63
2023-02-05T23:46:48.045Z,57.90
2023-02-05T23:49:15.712Z,52.20
2023-02-05T23:51:42.876Z,44.13
2023-02-05T23:54:11.465Z,60.40
2023-02-05T23:56:38.396Z,45.70
2023-02-05T23:59:06.827Z,47.03
